Time;durP1;ratioP1;P1;durP2;ratioP2;P2;SDS_P1;SDS_P2;PMS_P1;PMS_P2;Temp;Humidity;BMP_temperature;BMP_pressure;BME280_temperature;BME280_humidity;BME280_pressure;Samples;Min_cycle;Max_cycle;Signal;HPM_P1;HPM_P2
2022/11/28 00:00:58;;;;;;;2.53;2.33;;;20.90;49.30;;;;;;4995547;28;20033;-59
2022/11/28 00:03:24;;;;;;;2.13;1.95;;;20.90;49.30;;;;;;4993371;28;20042;-60
2022/11/28 00:05:50;;;;;;;3.45;2.33;;;20.90;49.30;;;;;;4994618;28;20137;-59
2022/11/28 00:08:16;;;;;;;2.30;2.10;;;20.90;49.60;;;;;;4993883;28;20456;-60
2022/11/28 00:10:41;;;;;;;2.10;2.00;;;20.90;49.30;;;;;;4994072;28;20042;-59
2022/11/28 00:13:07;;;;;;;2.20;2.00;;;20.90;49.30;;;;;;4994381;28;20132;-59
2022/11/28 00:15:33;;;;;;;1.90;1.80;;;20.80;49.20;;;;;;4991335;28;20045;-59
2022/11/28 00:17:58;;;;;;;2.13;1.92;;;20.80;49.20;;;;;;4993021;28;20120;-59
2022/11/28 00:20:24;;;;;;;2.22;1.92;;;20.80;49.20;;;;;;4992700;28;20044;-59
2022/11/28 00:22:51;;;;;;;2.30;2.13;;;20.80;49.20;;;;;;4994189;28;20046;-59
2022/11/28 00:25:16;;;;;;;2.15;1.90;;;20.70;49.10;;;;;;4994373;28;20046;-59
2022/11/28 00:27:42;;;;;;;1.90;1.80;;;20.80;49.10;;;;;;4991778;28;20034;-59
2022/11/28 00:30:08;;;;;;;2.30;2.10;;;20.70;49.10;;;;;;4991036;28;20157;-59
2022/11/28 00:32:34;;;;;;;3.15;2.22;;;20.70;49.10;;;;;;4992904;28;20034;-60
2022/11/28 00:34:59;;;;;;;2.60;1.98;;;20.70;49.10;;;;;;4993818;28;20046;-59
2022/11/28 00:37:25;;;;;;;2.25;2.00;;;20.70;49.10;;;;;;4994520;28;20080;-59
2022/11/28 00:39:50;;;;;;;2.45;2.10;;;20.70;49.00;;;;;;4990957;28;20081;-59
2022/11/28 00:42:19;;;;;;;2.00;1.75;;;20.70;49.00;;;;;;4992711;28;20042;-59
2022/11/28 00:44:45;;;;;;;2.10;1.90;;;20.70;49.00;;;;;;4992104;28;20054;-59
2022/11/28 00:47:11;;;;;;;2.40;2.10;;;20.70;49.20;;;;;;4994087;28;20057;-59
2022/11/28 00:49:37;;;;;;;1.70;1.60;;;20.70;49.10;;;;;;4995252;28;20527;-59
2022/11/28 00:52:02;;;;;;;1.95;1.83;;;20.70;49.00;;;;;;4992594;28;20034;-60
2022/11/28 00:54:28;;;;;;;1.88;1.65;;;20.60;49.00;;;;;;4994116;28;20046;-59
2022/11/28 00:56:53;;;;;;;2.20;2.00;;;20.60;49.00;;;;;;4994384;28;20052;-59
2022/11/28 00:59:19;;;;;;;2.00;1.80;;;20.60;49.00;;;;;;4993629;28;20053;-59
2022/11/28 01:01:45;;;;;;;2.10;1.90;;;20.60;49.00;;;;;;4993315;28;20046;-59
2022/11/28 01:04:13;;;;;;;1.95;1.85;;;20.60;49.00;;;;;;4994164;28;20042;-59
2022/11/28 01:06:47;;;;;;;1.73;1.63;;;20.60;49.00;;;;;;4993503;28;20433;-59
2022/11/28 01:09:19;;;;;;;2.17;1.88;;;20.60;49.00;;;;;;4991797;28;20046;-59
2022/11/28 01:11:47;;;;;;;2.10;1.90;;;20.60;49.00;;;;;;4994387;28;20085;-59
2022/11/28 01:14:14;;;;;;;1.60;1.50;;;20.60;49.00;;;;;;4993526;28;20092;-59
2022/11/28 01:16:40;;;;;;;2.20;2.00;;;20.50;48.90;;;;;;4994433;28;20133;-59
2022/11/28 01:19:06;;;;;;;1.92;1.83;;;20.50;48.90;;;;;;4992946;28;20168;-59
2022/11/28 01:21:32;;;;;;;2.00;1.80;;;20.50;48.80;;;;;;4981457;28;20165;-59
2022/11/28 01:23:57;;;;;;;1.85;1.75;;;20.50;48.80;;;;;;4991585;28;20035;-59
2022/11/28 01:26:26;;;;;;;1.90;1.70;;;20.50;48.80;;;;;;4993940;28;20042;-59
2022/11/28 01:28:53;;;;;;;2.00;1.63;;;20.50;48.80;;;;;;4992011;28;20038;-59
2022/11/28 01:31:21;;;;;;;2.35;1.80;;;20.50;48.80;;;;;;4991223;28;20045;-59
2022/11/28 01:33:47;;;;;;;2.15;1.88;;;20.50;48.80;;;;;;4992196;28;20125;-58
2022/11/28 01:36:13;;;;;;;2.38;1.95;;;20.50;48.80;;;;;;5023943;28;20619;-59
2022/11/28 01:38:39;;;;;;;1.90;1.80;;;20.50;48.80;;;;;;4993036;28;20156;-58
2022/11/28 01:41:06;;;;;;;1.63;1.52;;;20.50;48.80;;;;;;4992883;28;20517;-59
2022/11/28 01:43:33;;;;;;;2.00;1.90;;;20.40;48.70;;;;;;4990620;28;20041;-59
2022/11/28 01:45:59;;;;;;;1.63;1.52;;;20.40;48.70;;;;;;4992441;28;20042;-59
2022/11/28 01:48:32;;;;;;;2.35;1.70;;;20.40;48.80;;;;;;4993349;28;20038;-59
2022/11/28 01:51:01;;;;;;;1.60;1.50;;;20.40;48.70;;;;;;4991510;28;20033;-59
2022/11/28 01:53:33;;;;;;;1.95;1.80;;;20.40;48.70;;;;;;4993340;28;20041;-59
2022/11/28 01:56:10;;;;;;;1.60;1.50;;;20.40;48.70;;;;;;4993896;28;20160;-59
2022/11/28 01:58:40;;;;;;;1.90;1.80;;;20.40;48.70;;;;;;4992345;28;20113;-59
2022/11/28 02:01:07;;;;;;;1.73;1.50;;;20.40;48.70;;;;;;4991953;28;20168;-59
2022/11/28 02:03:44;;;;;;;2.10;1.95;;;20.40;48.70;;;;;;4992202;28;20113;-59
2022/11/28 02:06:11;;;;;;;1.90;1.70;;;20.40;48.70;;;;;;4992036;28;20045;-59
2022/11/28 02:08:37;;;;;;;1.83;1.73;;;20.30;48.70;;;;;;4990452;28;20449;-59
2022/11/28 02:11:24;;;;;;;1.60;1.45;;;20.30;48.70;;;;;;4990555;28;20030;-58
2022/11/28 02:13:58;;;;;;;2.10;1.90;;;20.30;48.60;;;;;;4995765;28;20047;-59
2022/11/28 02:16:46;;;;;;;1.75;1.65;;;20.30;48.70;;;;;;4993661;28;20054;-59
2022/11/28 02:19:54;;;;;;;1.70;1.60;;;20.30;48.60;;;;;;5000476;28;20046;-59
2022/11/28 02:22:27;;;;;;;1.80;1.70;;;20.30;48.60;;;;;;4995944;28;20152;-59
2022/11/28 02:25:17;;;;;;;1.73;1.63;;;20.30;48.70;;;;;;4996363;28;20465;-59
2022/11/28 02:28:04;;;;;;;1.70;1.60;;;20.30;48.80;;;;;;4994639;28;20047;-59
2022/11/28 02:30:39;;;;;;;2.03;1.65;;;20.30;48.70;;;;;;4995949;28;20323;-59
2022/11/28 02:33:13;;;;;;;1.98;1.70;;;20.20;48.70;;;;;;4994412;28;20037;-59
2022/11/28 02:35:57;;;;;;;1.88;1.77;;;20.30;48.80;;;;;;4997702;28;20038;-59
2022/11/28 02:38:53;;;;;;;2.60;1.70;;;20.20;48.70;;;;;;4996219;28;20409;-59
2022/11/28 02:41:53;;;;;;;2.42;1.52;;;20.20;48.60;;;;;;4995669;28;20666;-59
2022/11/28 02:44:36;;;;;;;2.20;1.50;;;20.20;48.70;;;;;;4996800;28;20050;-59
2022/11/28 02:47:24;;;;;;;1.90;1.70;;;20.20;48.70;;;;;;4995137;28;20041;-58
2022/11/28 02:50:13;;;;;;;2.25;2.05;;;20.20;48.80;;;;;;4995519;28;20078;-59
2022/11/28 02:52:44;;;;;;;1.90;1.75;;;20.20;48.80;;;;;;4994752;28;20112;-59
2022/11/28 02:55:12;;;;;;;1.80;1.70;;;20.20;48.70;;;;;;4995628;28;20061;-59
2022/11/28 02:57:40;;;;;;;1.77;1.67;;;20.10;48.70;;;;;;4995225;28;20041;-59
2022/11/28 03:00:29;;;;;;;1.88;1.70;;;20.20;48.70;;;;;;4993865;28;20042;-59
2022/11/28 03:03:27;;;;;;;1.75;1.65;;;20.10;48.60;;;;;;4995912;28;20486;-59
2022/11/28 03:05:56;;;;;;;1.73;1.60;;;20.10;48.50;;;;;;4995431;28;20077;-60
2022/11/28 03:08:36;;;;;;;1.70;1.60;;;20.10;48.70;;;;;;4995232;28;20040;-59
2022/11/28 03:11:20;;;;;;;1.70;1.60;;;20.10;48.70;;;;;;4999449;28;20070;-59
2022/11/28 03:14:34;;;;;;;2.08;1.88;;;20.10;48.70;;;;;;4993531;28;20038;-59
2022/11/28 03:17:17;;;;;;;1.55;1.45;;;20.10;48.60;;;;;;4990697;28;20050;-60
2022/11/28 03:20:02;;;;;;;1.70;1.60;;;20.10;48.70;;;;;;4994769;28;20049;-59
2022/11/28 03:22:37;;;;;;;1.60;1.50;;;20.10;48.70;;;;;;4995370;28;20037;-57
2022/11/28 03:25:05;;;;;;;1.95;1.85;;;20.10;48.70;;;;;;4994088;28;20486;-59
2022/11/28 03:28:05;;;;;;;2.13;1.80;;;20.10;48.70;;;;;;4992384;28;20042;-60
2022/11/28 03:31:04;;;;;;;2.17;1.70;;;20.10;48.70;;;;;;4978287;28;20519;-59
2022/11/28 03:33:34;;;;;;;1.50;1.40;;;20.10;48.70;;;;;;4993764;28;20070;-59
2022/11/28 03:36:11;;;;;;;1.60;1.50;;;20.00;48.70;;;;;;4994418;28;20048;-59
2022/11/28 03:38:41;;;;;;;1.75;1.63;;;20.00;48.70;;;;;;4994623;28;20048;-58
2022/11/28 03:41:13;;;;;;;1.60;1.50;;;20.00;48.70;;;;;;4993580;28;20049;-59
2022/11/28 03:43:45;;;;;;;2.17;1.70;;;20.00;48.70;;;;;;4993650;28;20544;-59
2022/11/28 03:46:14;;;;;;;1.77;1.67;;;20.00;48.70;;;;;;4993693;28;20046;-59
2022/11/28 03:48:45;;;;;;;1.77;1.58;;;20.00;48.70;;;;;;4995796;28;20057;-58
2022/11/28 03:51:15;;;;;;;1.75;1.65;;;20.00;48.70;;;;;;4994287;28;20038;-59
2022/11/28 03:53:58;;;;;;;2.38;1.67;;;20.00;48.70;;;;;;4995806;28;20045;-59
2022/11/28 03:56:39;;;;;;;1.70;1.60;;;20.00;48.70;;;;;;4994350;28;20081;-59
2022/11/28 03:59:24;;;;;;;1.70;1.60;;;20.00;48.70;;;;;;4993637;28;20073;-59
2022/11/28 04:02:04;;;;;;;1.80;1.70;;;20.00;48.70;;;;;;4993402;28;20056;-59
2022/11/28 04:04:38;;;;;;;1.70;1.60;;;19.90;48.70;;;;;;4993979;28;20452;-59
2022/11/28 04:07:23;;;;;;;1.70;1.60;;;19.90;48.70;;;;;;4992631;28;20031;-59
2022/11/28 04:10:09;;;;;;;2.15;1.75;;;19.90;48.70;;;;;;4993273;28;20054;-59
2022/11/28 04:12:57;;;;;;;1.73;1.63;;;19.90;48.80;;;;;;4993955;28;20038;-59
2022/11/28 04:15:29;;;;;;;2.63;1.70;;;19.90;48.80;;;;;;4993434;28;20046;-59
2022/11/28 04:18:15;;;;;;;1.70;1.60;;;19.90;48.80;;;;;;4994311;28;20054;-59
2022/11/28 04:20:46;;;;;;;2.08;1.83;;;19.90;48.80;;;;;;4994368;28;20045;-59
2022/11/28 04:23:15;;;;;;;1.70;1.60;;;19.90;48.80;;;;;;4994414;28;20050;-59
2022/11/28 04:25:48;;;;;;;2.35;1.83;;;19.90;48.80;;;;;;4993995;28;20540;-59
2022/11/28 04:28:18;;;;;;;1.92;1.73;;;19.90;48.90;;;;;;4994587;28;20048;-59
2022/11/28 04:30:46;;;;;;;1.75;1.65;;;19.90;48.90;;;;;;4993035;28;20038;-58
2022/11/28 04:33:15;;;;;;;2.13;1.65;;;19.90;48.90;;;;;;4993716;28;20037;-59
2022/11/28 04:35:46;;;;;;;2.63;1.60;;;19.90;48.90;;;;;;4991985;28;20046;-58
2022/11/28 04:38:12;;;;;;;1.80;1.70;;;19.80;48.80;;;;;;4990735;28;20046;-59
2022/11/28 04:40:53;;;;;;;1.70;1.60;;;19.80;48.90;;;;;;4992881;28;20571;-59
2022/11/28 04:43:28;;;;;;;1.65;1.55;;;19.80;48.80;;;;;;4993343;28;20513;-59
2022/11/28 04:46:00;;;;;;;2.30;1.90;;;19.80;48.90;;;;;;4993955;28;20049;-59
2022/11/28 04:48:26;;;;;;;1.58;1.48;;;19.80;49.00;;;;;;4995304;28;20108;-59
2022/11/28 04:51:16;;;;;;;2.05;1.85;;;19.80;49.00;;;;;;4995501;28;20481;-59
2022/11/28 04:54:09;;;;;;;1.80;1.70;;;19.80;48.90;;;;;;4995835;28;20517;-59
2022/11/28 04:57:06;;;;;;;1.50;1.40;;;19.80;48.90;;;;;;4994586;28;20044;-59
2022/11/28 04:59:32;;;;;;;2.15;1.70;;;19.80;48.90;;;;;;4992496;28;20510;-59
2022/11/28 05:02:01;;;;;;;2.00;1.80;;;19.70;49.00;;;;;;4991851;28;20041;-59
2022/11/28 05:04:27;;;;;;;1.70;1.60;;;19.70;49.00;;;;;;4993883;28;20065;-58
2022/11/28 05:07:01;;;;;;;1.77;1.52;;;19.70;49.00;;;;;;4992913;28;20432;-59
2022/11/28 05:09:27;;;;;;;1.73;1.60;;;19.70;48.90;;;;;;4993705;28;20714;-59
2022/11/28 05:11:52;;;;;;;1.50;1.40;;;19.70;49.00;;;;;;4994589;28;20034;-61
2022/11/28 05:14:18;;;;;;;1.60;1.35;;;19.70;49.80;;;;;;4993188;28;20038;-59
2022/11/28 05:16:44;;;;;;;1.48;1.38;;;19.70;49.00;;;;;;4993552;28;20130;-59
2022/11/28 05:19:10;;;;;;;1.77;1.67;;;19.70;49.00;;;;;;4993492;28;20049;-59
2022/11/28 05:21:35;;;;;;;1.70;1.60;;;19.70;49.00;;;;;;4991896;28;20180;-60
2022/11/28 05:24:01;;;;;;;1.48;1.38;;;19.70;49.00;;;;;;4993437;28;20041;-62
2022/11/28 05:26:30;;;;;;;1.60;1.50;;;19.70;49.00;;;;;;4994629;28;20382;-59
2022/11/28 05:28:56;;;;;;;1.85;1.70;;;19.70;49.00;;;;;;4993089;28;20088;-61
2022/11/28 05:31:22;;;;;;;1.55;1.45;;;19.70;49.00;;;;;;4993574;28;20486;-60
2022/11/28 05:33:47;;;;;;;1.60;1.50;;;19.70;49.00;;;;;;4992953;28;20042;-59
2022/11/28 05:36:14;;;;;;;1.65;1.55;;;19.70;49.00;;;;;;4992472;28;20118;-61
2022/11/28 05:38:41;;;;;;;1.60;1.50;;;19.70;49.00;;;;;;4994881;28;20040;-61
2022/11/28 05:41:06;;;;;;;1.77;1.67;;;19.70;49.00;;;;;;4992882;28;20054;-61
2022/11/28 05:43:32;;;;;;;1.45;1.35;;;19.60;49.00;;;;;;4992106;28;20048;-61
2022/11/28 05:45:58;;;;;;;1.85;1.73;;;19.70;49.00;;;;;;4994303;28;20038;-58
2022/11/28 05:48:23;;;;;;;3.22;1.80;;;19.60;49.00;;;;;;5010524;28;20489;-61
2022/11/28 05:50:52;;;;;;;2.72;1.40;;;19.60;49.00;;;;;;4997663;28;20558;-61
2022/11/28 05:53:18;;;;;;;1.60;1.48;;;19.70;49.10;;;;;;4995666;28;20129;-60
2022/11/28 05:55:45;;;;;;;1.70;1.35;;;19.70;49.10;;;;;;4993346;28;20489;-61
2022/11/28 05:58:10;;;;;;;1.30;1.20;;;19.70;49.00;;;;;;4996363;28;20042;-60
2022/11/28 06:00:36;;;;;;;1.60;1.42;;;19.70;49.00;;;;;;4996102;28;20095;-60
2022/11/28 06:03:03;;;;;;;3.28;1.73;;;19.70;49.00;;;;;;4994752;28;20136;-60
2022/11/28 06:05:29;;;;;;;1.55;1.30;;;19.80;49.00;;;;;;4996413;28;20502;-61
2022/11/28 06:07:54;;;;;;;2.35;1.58;;;19.80;48.90;;;;;;4995442;28;20045;-58
2022/11/28 06:10:21;;;;;;;2.28;1.50;;;19.80;49.00;;;;;;4995505;28;20481;-60
2022/11/28 06:12:47;;;;;;;1.52;1.42;;;19.80;49.00;;;;;;4997163;28;20049;-60
2022/11/28 06:15:13;;;;;;;8.70;1.80;;;19.80;49.00;;;;;;4995440;28;20409;-60
2022/11/28 06:17:39;;;;;;;2.42;1.65;;;19.80;48.90;;;;;;4997739;28;20048;-60
2022/11/28 06:20:06;;;;;;;4.07;1.50;;;19.80;49.00;;;;;;4998161;28;20050;-60
2022/11/28 06:22:32;;;;;;;3.00;1.48;;;19.80;49.00;;;;;;4997532;28;20354;-61
2022/11/28 06:24:57;;;;;;;1.83;1.35;;;19.70;49.00;;;;;;4996147;28;20049;-60
2022/11/28 06:27:23;;;;;;;1.98;1.38;;;19.70;49.00;;;;;;4998564;28;20041;-60
2022/11/28 06:29:49;;;;;;;8.25;1.50;;;19.80;49.10;;;;;;4996451;28;20075;-60
2022/11/28 06:32:14;;;;;;;1.40;1.25;;;19.70;49.10;;;;;;4996238;28;20393;-60
2022/11/28 06:34:40;;;;;;;1.50;1.40;;;19.70;49.00;;;;;;4996796;28;20042;-60
2022/11/28 06:37:05;;;;;;;3.03;1.70;;;19.70;49.10;;;;;;4995577;28;20049;-60
2022/11/28 06:39:31;;;;;;;1.55;1.45;;;19.70;49.10;;;;;;4994197;28;20046;-60
2022/11/28 06:41:57;;;;;;;1.50;1.40;;;19.70;49.10;;;;;;4996262;28;20451;-60
2022/11/28 06:44:22;;;;;;;1.73;1.63;;;19.70;49.10;;;;;;4992321;28;20492;-60
2022/11/28 06:46:48;;;;;;;5.10;1.63;;;19.70;49.20;;;;;;4992450;28;20103;-60
2022/11/28 06:49:14;;;;;;;4.50;1.60;;;19.70;49.20;;;;;;4993488;28;20034;-60
2022/11/28 06:51:40;;;;;;;1.60;1.30;;;20.00;49.00;;;;;;4991107;28;20149;-61
2022/11/28 06:54:07;;;;;;;2.83;1.58;;;20.70;47.90;;;;;;4993611;28;20041;-60
2022/11/28 06:56:32;;;;;;;1.35;1.25;;;21.50;46.90;;;;;;4995073;28;20042;-61
2022/11/28 06:58:59;;;;;;;5.18;1.38;;;22.20;45.20;;;;;;4992215;28;20568;-60
2022/11/28 07:01:27;;;;;;;2.35;1.30;;;22.70;44.10;;;;;;4992846;28;20534;-60
2022/11/28 07:03:55;;;;;;;3.53;1.30;;;23.00;43.50;;;;;;4994580;28;20045;-60
2022/11/28 07:06:23;;;;;;;1.88;1.40;;;23.00;43.40;;;;;;4994154;28;20083;-60
2022/11/28 07:08:49;;;;;;;1.95;1.15;;;22.90;43.60;;;;;;4993940;28;20514;-60
2022/11/28 07:11:20;;;;;;;1.92;1.27;;;22.80;43.70;;;;;;4992358;28;20030;-60
2022/11/28 07:13:47;;;;;;;2.80;1.20;;;22.80;43.90;;;;;;4995024;28;20042;-60
2022/11/28 07:16:16;;;;;;;2.55;1.10;;;22.70;43.90;;;;;;4994949;28;20094;-61
2022/11/28 07:18:42;;;;;;;2.83;1.27;;;22.70;44.00;;;;;;4994400;28;20045;-60
2022/11/28 07:21:08;;;;;;;1.05;0.95;;;22.60;44.20;;;;;;5023313;28;20138;-59
2022/11/28 07:23:34;;;;;;;2.08;1.10;;;22.40;44.40;;;;;;4994774;28;20042;-60
2022/11/28 07:26:02;;;;;;;2.08;1.10;;;22.30;44.60;;;;;;4993692;28;20040;-60
2022/11/28 07:28:29;;;;;;;1.42;1.10;;;22.20;45.00;;;;;;4993094;28;20046;-61
2022/11/28 07:31:05;;;;;;;2.67;1.33;;;22.20;45.10;;;;;;4985162;28;20069;-61
2022/11/28 07:33:32;;;;;;;3.47;1.30;;;22.20;45.20;;;;;;4993999;28;20536;-60
2022/11/28 07:36:21;;;;;;;1.30;1.10;;;22.10;45.50;;;;;;4994216;28;20381;-60
2022/11/28 07:38:49;;;;;;;2.00;1.27;;;22.10;45.60;;;;;;4994189;28;20100;-61
2022/11/28 07:41:15;;;;;;;2.50;1.08;;;22.20;45.90;;;;;;4994730;28;20440;-60
2022/11/28 07:43:42;;;;;;;1.20;1.10;;;22.10;45.80;;;;;;4993272;28;20054;-60
2022/11/28 07:46:12;;;;;;;2.13;1.05;;;22.10;45.90;;;;;;4992854;28;20039;-61
2022/11/28 07:48:37;;;;;;;2.17;1.20;;;22.20;45.90;;;;;;4990336;28;20050;-60
2022/11/28 07:51:09;;;;;;;1.50;0.98;;;22.20;45.90;;;;;;4992163;28;20623;-61
2022/11/28 07:53:35;;;;;;;1.20;1.10;;;22.20;45.90;;;;;;4993366;28;20042;-60
2022/11/28 07:56:06;;;;;;;1.08;1.00;;;22.20;46.00;;;;;;4993858;28;20899;-59
2022/11/28 07:58:33;;;;;;;1.50;1.17;;;22.20;46.00;;;;;;4992676;28;20790;-60
2022/11/28 08:00:59;;;;;;;1.85;1.00;;;22.20;46.10;;;;;;4992737;28;20508;-60
2022/11/28 08:03:24;;;;;;;1.25;1.00;;;22.20;46.00;;;;;;4999360;28;20050;-60
2022/11/28 08:05:50;;;;;;;1.00;1.00;;;22.20;46.00;;;;;;4991856;28;20038;-61
2022/11/28 08:08:16;;;;;;;1.05;0.93;;;22.20;46.00;;;;;;4992610;28;20045;-60
2022/11/28 08:10:42;;;;;;;1.23;1.08;;;22.20;46.10;;;;;;4992384;28;20481;-60
2022/11/28 08:13:08;;;;;;;1.33;0.90;;;22.20;46.10;;;;;;4992395;28;21081;-61
2022/11/28 08:15:36;;;;;;;1.60;1.00;;;22.20;46.10;;;;;;4992675;28;20046;-60
2022/11/28 08:18:02;;;;;;;1.02;0.93;;;22.20;46.10;;;;;;4992650;28;20115;-60
2022/11/28 08:20:28;;;;;;;1.50;0.93;;;22.20;46.10;;;;;;4991726;28;20045;-61
2022/11/28 08:22:53;;;;;;;2.08;1.15;;;22.20;46.10;;;;;;4995488;28;21375;-60
2022/11/28 08:25:19;;;;;;;1.15;1.05;;;22.20;46.10;;;;;;4990717;28;20066;-61
2022/11/28 08:27:45;;;;;;;1.65;1.10;;;22.20;46.20;;;;;;4993424;28;20470;-60
2022/11/28 08:30:12;;;;;;;1.98;1.05;;;22.20;46.30;;;;;;4992056;28;20398;-60
2022/11/28 08:32:37;;;;;;;0.82;0.82;;;22.20;46.40;;;;;;4992551;28;20112;-60
2022/11/28 08:35:03;;;;;;;1.88;1.25;;;22.20;46.50;;;;;;4989116;28;20042;-61
2022/11/28 08:37:29;;;;;;;1.85;0.90;;;22.30;46.60;;;;;;4991294;28;20129;-61
2022/11/28 08:39:54;;;;;;;3.30;1.20;;;22.30;46.70;;;;;;4988648;28;20418;-58
2022/11/28 08:42:20;;;;;;;1.67;1.10;;;22.30;46.70;;;;;;4990522;28;20064;-59
2022/11/28 08:44:46;;;;;;;2.75;1.10;;;22.30;46.70;;;;;;4990157;28;20040;-60
2022/11/28 08:47:12;;;;;;;2.65;0.93;;;22.30;46.80;;;;;;4992177;28;20473;-60
2022/11/28 08:49:38;;;;;;;2.60;1.25;;;22.30;46.90;;;;;;4990628;28;20040;-60
2022/11/28 08:52:04;;;;;;;2.65;1.20;;;22.20;47.00;;;;;;4991659;28;20092;-61
2022/11/28 08:54:30;;;;;;;11.10;1.90;;;22.30;47.10;;;;;;4990487;28;20037;-60
2022/11/28 08:56:57;;;;;;;5.35;1.70;;;22.30;47.00;;;;;;4990928;28;20038;-60
2022/11/28 08:59:23;;;;;;;8.25;1.60;;;22.30;47.00;;;;;;4993371;28;20056;-61
2022/11/28 09:01:52;;;;;;;3.42;1.13;;;22.20;47.00;;;;;;4994718;28;20413;-60
2022/11/28 09:04:18;;;;;;;5.88;1.20;;;22.30;47.10;;;;;;4993220;28;20117;-61
2022/11/28 09:06:43;;;;;;;5.25;1.30;;;22.30;47.10;;;;;;4992179;28;20046;-62
2022/11/28 09:09:09;;;;;;;2.83;1.30;;;22.30;47.10;;;;;;4993187;28;20508;-61
2022/11/28 09:11:35;;;;;;;5.20;1.20;;;22.30;47.00;;;;;;4992467;28;20043;-63
2022/11/28 09:14:01;;;;;;;4.10;1.27;;;22.40;47.70;;;;;;4992604;28;20048;-61
2022/11/28 09:16:27;;;;;;;3.63;1.30;;;22.40;46.90;;;;;;4991478;28;20058;-62
2022/11/28 09:18:56;;;;;;;5.88;1.33;;;22.40;46.80;;;;;;4993689;28;20030;-61
2022/11/28 09:21:22;;;;;;;2.35;1.20;;;22.40;46.80;;;;;;4991162;28;20038;-61
2022/11/28 09:23:47;;;;;;;3.55;1.27;;;22.40;46.70;;;;;;4993536;28;20388;-61
2022/11/28 09:26:19;;;;;;;4.80;1.35;;;22.40;46.90;;;;;;4992852;28;20511;-61
2022/11/28 09:28:46;;;;;;;2.80;1.20;;;22.40;47.10;;;;;;4995153;28;20042;-61
2022/11/28 09:31:12;;;;;;;1.60;1.15;;;22.40;47.10;;;;;;4992955;28;20085;-61
2022/11/28 09:33:38;;;;;;;3.33;1.25;;;22.40;47.20;;;;;;4994214;28;20041;-60
2022/11/28 09:36:10;;;;;;;1.75;1.23;;;22.40;47.50;;;;;;4991424;28;20041;-61
2022/11/28 09:38:37;;;;;;;5.70;1.23;;;22.40;47.50;;;;;;4992282;28;20112;-61
2022/11/28 09:41:21;;;;;;;1.58;0.90;;;22.40;47.60;;;;;;4990400;28;20129;-61
2022/11/28 09:43:48;;;;;;;1.50;0.90;;;22.40;47.70;;;;;;4990867;28;20049;-61
2022/11/28 09:46:23;;;;;;;2.88;1.10;;;22.40;47.70;;;;;;4993839;28;20042;-61
2022/11/28 09:48:54;;;;;;;2.45;1.15;;;22.40;47.80;;;;;;4991403;28;20065;-61
2022/11/28 09:51:51;;;;;;;3.03;1.00;;;22.50;47.90;;;;;;4990917;28;20053;-60
2022/11/28 09:54:42;;;;;;;3.83;1.10;;;22.50;47.90;;;;;;4992043;28;21465;-61
2022/11/28 09:57:20;;;;;;;2.30;0.93;;;22.50;47.90;;;;;;4969581;28;20877;-60
2022/11/28 09:59:46;;;;;;;2.67;0.95;;;22.50;47.80;;;;;;4999031;28;20513;-61
2022/11/28 10:02:12;;;;;;;1.55;1.10;;;22.50;47.80;;;;;;4974683;28;20078;-60
2022/11/28 10:04:57;;;;;;;2.67;1.00;;;22.50;47.70;;;;;;4992125;28;20042;-61
2022/11/28 10:07:37;;;;;;;1.77;1.00;;;22.50;47.70;;;;;;4987292;28;20042;-60
2022/11/28 10:10:22;;;;;;;1.90;0.90;;;22.50;47.70;;;;;;4988197;28;20149;-60
2022/11/28 10:13:18;;;;;;;2.35;0.82;;;22.50;47.70;;;;;;4987229;28;20042;-61
2022/11/28 10:15:57;;;;;;;0.88;0.80;;;22.50;47.70;;;;;;4989610;28;20092;-60
2022/11/28 10:18:44;;;;;;;2.05;1.10;;;22.50;47.70;;;;;;4990608;28;20095;-60
2022/11/28 10:21:26;;;;;;;1.80;0.95;;;22.50;47.60;;;;;;4991520;28;20046;-60
2022/11/28 10:23:58;;;;;;;15.50;10.18;;;22.50;47.80;;;;;;4989630;28;20085;-60
2022/11/28 10:26:35;;;;;;;23.50;13.82;;;22.50;47.90;;;;;;4987695;28;20042;-60
2022/11/28 10:29:19;;;;;;;25.23;13.57;;;22.50;48.00;;;;;;4989301;28;20084;-60
2022/11/28 10:31:46;;;;;;;31.63;15.98;;;22.50;48.10;;;;;;4989082;28;20042;-61
2022/11/28 10:34:44;;;;;;;33.70;15.82;;;22.60;48.20;;;;;;4991477;28;20556;-61
2022/11/28 10:37:24;;;;;;;29.90;14.48;;;22.60;48.70;;;;;;4983405;28;20100;-60
2022/11/28 10:39:50;;;;;;;38.23;15.30;;;22.60;48.70;;;;;;4995167;28;20054;-60
2022/11/28 10:42:39;;;;;;;37.30;15.57;;;22.60;48.80;;;;;;4998857;28;20081;-60
2022/11/28 10:45:23;;;;;;;35.90;15.05;;;22.60;48.90;;;;;;4996229;28;20034;-61
2022/11/28 10:47:52;;;;;;;35.30;16.23;;;22.70;49.20;;;;;;4996399;28;20042;-61
2022/11/28 10:51:00;;;;;;;42.65;15.52;;;22.70;49.00;;;;;;4997186;28;20038;-61
2022/11/28 10:53:31;;;;;;;32.15;14.88;;;22.70;49.00;;;;;;4960070;28;20042;-61
2022/11/28 10:56:16;;;;;;;37.97;12.63;;;22.70;48.80;;;;;;4996108;28;20046;-60
2022/11/28 10:59:13;;;;;;;32.67;13.18;;;22.60;48.80;;;;;;4994824;28;20078;-60
2022/11/28 11:01:40;;;;;;;29.45;12.30;;;22.60;48.70;;;;;;4994737;28;20041;-61
2022/11/28 11:04:15;;;;;;;30.40;12.93;;;22.60;48.60;;;;;;4997030;28;20033;-60
2022/11/28 11:06:41;;;;;;;36.03;14.05;;;22.70;48.60;;;;;;4996093;28;20042;-60
2022/11/28 11:09:11;;;;;;;38.88;14.32;;;22.70;48.80;;;;;;4994215;28;20033;-60
2022/11/28 11:11:45;;;;;;;40.50;13.83;;;22.70;48.80;;;;;;4997536;28;20084;-60
2022/11/28 11:14:11;;;;;;;44.38;14.55;;;22.70;48.90;;;;;;4994523;28;20046;-60
2022/11/28 11:16:54;;;;;;;39.20;13.75;;;22.70;49.00;;;;;;4980200;28;20040;-59
2022/11/28 11:19:28;;;;;;;42.40;13.63;;;22.70;48.90;;;;;;4993919;28;20061;-60
2022/11/28 11:22:06;;;;;;;37.65;13.32;;;22.60;49.00;;;;;;4993543;28;20149;-60
2022/11/28 11:24:32;;;;;;;40.72;14.20;;;22.60;49.10;;;;;;4994502;28;20502;-61
2022/11/28 11:27:18;;;;;;;41.45;14.73;;;22.60;49.20;;;;;;4995556;28;20042;-61
2022/11/28 11:29:44;;;;;;;38.53;14.27;;;22.60;49.30;;;;;;4994679;28;20629;-61
2022/11/28 11:32:39;;;;;;;44.80;14.25;;;22.60;49.30;;;;;;4994247;28;20092;-61
2022/11/28 11:35:05;;;;;;;35.78;13.43;;;22.70;49.40;;;;;;4990157;28;20375;-60
2022/11/28 11:37:32;;;;;;;36.38;11.90;;;22.60;49.20;;;;;;4994158;28;20049;-61
2022/11/28 11:39:59;;;;;;;31.60;11.55;;;22.60;49.00;;;;;;4994614;28;20069;-61
2022/11/28 11:42:30;;;;;;;38.22;11.93;;;22.60;49.00;;;;;;4994526;28;20133;-61
2022/11/28 11:44:56;;;;;;;;;;;22.60;48.90;;;;;;4994682;28;20398;-60
2022/11/28 11:47:42;;;;;;;29.45;10.45;;;22.60;48.90;;;;;;4994722;28;19933;-60
2022/11/28 11:50:18;;;;;;;29.27;10.77;;;22.60;48.90;;;;;;4994651;28;20034;-61
2022/11/28 11:53:19;;;;;;;30.58;10.45;;;22.60;48.90;;;;;;4992463;28;20371;-61
2022/11/28 11:55:50;;;;;;;29.88;10.07;;;22.60;48.90;;;;;;4993103;28;20049;-60
2022/11/28 11:58:27;;;;;;;27.38;8.88;;;22.60;48.90;;;;;;4992552;28;20038;-60
2022/11/28 12:00:57;;;;;;;22.48;8.07;;;22.60;48.80;;;;;;4992167;28;20543;-61
2022/11/28 12:03:23;;;;;;;21.13;7.97;;;22.70;48.80;;;;;;4993855;28;20103;-61
2022/11/28 12:05:57;;;;;;;24.52;8.63;;;22.70;48.70;;;;;;4992636;28;20050;-60
2022/11/28 12:08:33;;;;;;;19.80;7.25;;;22.70;48.60;;;;;;4990012;28;20038;-61
2022/11/28 12:11:17;;;;;;;25.40;8.32;;;22.60;48.50;;;;;;4993728;28;20522;-60
2022/11/28 12:13:43;;;;;;;22.08;6.95;;;22.60;48.70;;;;;;4990965;28;20792;-61
2022/11/28 12:16:45;;;;;;;23.58;7.40;;;22.60;48.60;;;;;;4994295;28;20034;-61
2022/11/28 12:19:31;;;;;;;17.70;6.10;;;22.70;48.40;;;;;;4993843;28;20457;-60
2022/11/28 12:22:22;;;;;;;12.95;5.82;;;22.60;48.40;;;;;;4993537;28;20493;-60
2022/11/28 12:25:09;;;;;;;21.95;6.25;;;22.60;48.40;;;;;;4993623;28;20045;-60
2022/11/28 12:27:47;;;;;;;13.73;5.53;;;22.60;48.40;;;;;;4994575;28;20042;-59
2022/11/28 12:30:54;;;;;;;13.23;5.38;;;22.60;48.30;;;;;;4995561;28;20397;-61
2022/11/28 12:33:31;;;;;;;15.50;5.45;;;22.60;48.10;;;;;;4990699;28;21036;-61
2022/11/28 12:36:08;;;;;;;14.55;4.82;;;22.60;48.30;;;;;;4992076;28;20054;-61
2022/11/28 12:38:35;;;;;;;11.25;4.28;;;22.60;48.30;;;;;;4993506;28;20154;-61
2022/11/28 12:41:21;;;;;;;13.95;5.20;;;22.60;48.30;;;;;;4993096;28;20065;-62
2022/11/28 12:44:01;;;;;;;14.10;4.80;;;22.60;48.30;;;;;;4994959;28;20045;-61
2022/11/28 12:46:49;;;;;;;16.38;5.43;;;22.70;48.30;;;;;;4993472;28;20046;-61
2022/11/28 12:49:51;;;;;;;13.57;4.72;;;22.60;48.20;;;;;;4992264;28;20057;-61
2022/11/28 12:52:41;;;;;;;14.88;4.45;;;22.70;48.20;;;;;;4990843;28;20037;-60
2022/11/28 12:55:20;;;;;;;10.32;4.47;;;22.60;48.10;;;;;;4992309;28;20042;-60
2022/11/28 12:58:03;;;;;;;11.75;4.22;;;22.60;48.20;;;;;;4993226;28;20053;-60
2022/11/28 13:00:29;;;;;;;14.25;4.35;;;22.70;48.10;;;;;;4991981;28;20037;-61
2022/11/28 13:03:22;;;;;;;11.07;4.60;;;22.70;48.00;;;;;;4993109;28;20065;-60
2022/11/28 13:06:29;;;;;;;12.77;3.78;;;22.70;47.90;;;;;;4991807;28;20057;-60
2022/11/28 13:09:32;;;;;;;8.48;3.90;;;22.70;47.70;;;;;;4990666;28;20117;-60
2022/11/28 13:12:12;;;;;;;9.27;3.72;;;22.70;47.70;;;;;;4994989;28;20045;-60